Skip Navigation Links Skip Navigation Links

Current Weather

Mc Carran Intl, Las Vegas, Nev.

For information only: do not use for flight planning or navigation.
Latest weather
Observation time Wednesday, August 12, 2020 9:56 AM PDT
Local time Wednesday, August 12, 2020 10:49 AM PDT
Flight conditions Visual Meteorological Conditions
Winds
Wind direction South (190°)
Wind speed 9 mph
Visibility 10 mi.
Sky condition
Ceiling unlimited
Sky clear
Temperature 94°F
Dewpoint 30°F
Altimeter 29.96 in.Hg
Derived measurements
Relative humidity 10%
Heat index 94°F
Density altitude 4434 ft.
Sea-level pressure 29.86 in.Hg
Remarks
Automated weather observing station with precipitation discriminator.
METAR KLAS 121656Z 19008KT 10SM CLR 34/M01 A2996 RMK AO2 SLP112 T03441011

Settings

Location code

InnerDrive.Weather 4.0.6770.0 Release CLR 4.0.30319.42000
Copyright ©2018 Inner Drive Technology. All rights reserved. Portions Copyright ©1986-2018 David Braverman.

Find weather

Site navigation


Skip Navigation Links

Place info

Page info

PayPal - The safer, easier way to pay online!

Return home.

Copyright ©2020 Inner Drive Technology. Purveyors of fine, hand-crafted computer software. Page printed 2020-08-12T17:49:12 UTC.